Time;durP1;ratioP1;P1;durP2;ratioP2;P2;SDS_P1;SDS_P2;PMS_P1;PMS_P2;Temp;Humidity;BMP_temperature;BMP_pressure;BME280_temperature;BME280_humidity;BME280_pressure;Samples;Min_cycle;Max_cycle;Signal;HPM_P1;HPM_P2
2022/12/14 00:01:39;;;;;;;0.73;0.73;;;;;;;;;;7376870;19;20468;-65
2022/12/14 00:04:04;;;;;;;0.53;0.53;;;;;;;;;;7380325;19;20551;-62
2022/12/14 00:06:31;;;;;;;2.03;0.77;;;;;;;;;;7365842;19;20136;-62
2022/12/14 00:08:59;;;;;;;1.07;1.07;;;;;;;;;;7384897;19;20967;-62
2022/12/14 00:11:25;;;;;;;1.70;1.60;;;;;;;;;;7384518;19;20752;-62
2022/12/14 00:14:08;;;;;;;1.90;1.47;;;;;;;;;;7379592;19;20163;-62
2022/12/14 00:16:34;;;;;;;3.07;0.87;;;;;;;;;;7384127;19;20898;-62
2022/12/14 00:19:00;;;;;;;1.27;1.20;;;;;;;;;;7379965;19;20125;-62
2022/12/14 00:21:26;;;;;;;1.33;1.33;;;;;;;;;;7381508;19;20545;-62
2022/12/14 00:23:52;;;;;;;1.27;1.10;;;;;;;;;;7380179;19;20157;-62
2022/12/14 00:26:20;;;;;;;0.70;0.70;;;;;;;;;;7385794;19;20129;-62
2022/12/14 00:28:46;;;;;;;1.00;1.00;;;;;;;;;;7382028;19;20135;-62
2022/12/14 00:31:12;;;;;;;1.03;1.03;;;;;;;;;;7383576;19;20143;-62
2022/12/14 00:33:38;;;;;;;1.13;0.80;;;;;;;;;;7380404;19;20153;-62
2022/12/14 00:36:04;;;;;;;0.87;0.87;;;;;;;;;;7382255;19;20216;-62
2022/12/14 00:38:30;;;;;;;1.60;1.50;;;;;;;;;;7382722;19;20155;-62
2022/12/14 00:40:55;;;;;;;1.40;1.30;;;;;;;;;;7376766;19;20121;-62
2022/12/14 00:43:21;;;;;;;1.17;0.70;;;;;;;;;;7379363;19;20152;-62
2022/12/14 00:45:46;;;;;;;0.87;0.87;;;;;;;;;;7385562;19;20696;-62
2022/12/14 00:48:12;;;;;;;1.33;1.13;;;;;;;;;;7381630;19;20125;-62
2022/12/14 00:50:38;;;;;;;0.90;0.90;;;;;;;;;;7383536;19;20140;-62
2022/12/14 00:53:04;;;;;;;0.80;0.80;;;;;;;;;;7380794;19;20161;-62
2022/12/14 00:55:30;;;;;;;1.03;1.03;;;;;;;;;;7384578;19;20146;-62
2022/12/14 00:57:55;;;;;;;0.83;0.73;;;;;;;;;;7377347;19;20129;-62
2022/12/14 01:00:21;;;;;;;2.10;1.37;;;;;;;;;;7384205;19;20152;-62
2022/12/14 01:02:46;;;;;;;3.07;1.57;;;;;;;;;;7380794;19;20157;-62
2022/12/14 01:05:11;;;;;;;1.00;1.00;;;;;;;;;;7386833;19;20498;-62
2022/12/14 01:07:36;;;;;;;1.20;1.10;;;;;;;;;;7382722;19;20149;-62
2022/12/14 01:10:02;;;;;;;3.17;1.30;;;;;;;;;;7381178;19;20121;-62
2022/12/14 01:12:27;;;;;;;0.93;0.93;;;;;;;;;;7383049;19;20148;-62
2022/12/14 01:14:53;;;;;;;1.03;0.97;;;;;;;;;;7379707;19;20592;-62
2022/12/14 01:17:18;;;;;;;1.40;1.30;;;;;;;;;;7379771;19;20658;-62
2022/12/14 01:19:43;;;;;;;3.77;1.67;;;;;;;;;;7387128;19;20136;-62
2022/12/14 01:22:09;;;;;;;1.13;1.13;;;;;;;;;;7380461;19;20148;-62
2022/12/14 01:24:34;;;;;;;1.57;1.47;;;;;;;;;;7384664;19;20463;-62
2022/12/14 01:26:59;;;;;;;0.90;0.90;;;;;;;;;;7383151;19;20133;-64
2022/12/14 01:29:25;;;;;;;0.93;0.93;;;;;;;;;;7387187;19;20121;-65
2022/12/14 01:31:50;;;;;;;0.87;0.70;;;;;;;;;;7377333;19;20456;-65
2022/12/14 01:34:16;;;;;;;1.03;1.03;;;;;;;;;;7376883;19;20113;-65
2022/12/14 01:36:41;;;;;;;1.00;1.00;;;;;;;;;;7382087;19;20129;-65
2022/12/14 01:39:12;;;;;;;1.07;1.07;;;;;;;;;;7380692;19;20598;-65
2022/12/14 01:41:43;;;;;;;0.93;0.87;;;;;;;;;;7370021;19;20143;-65
2022/12/14 01:44:08;;;;;;;2.97;1.47;;;;;;;;;;7375003;19;20132;-65
2022/12/14 01:46:44;;;;;;;1.50;1.40;;;;;;;;;;7387065;19;20629;-65
2022/12/14 01:49:17;;;;;;;1.30;1.13;;;;;;;;;;7373583;19;20129;-65
2022/12/14 01:51:45;;;;;;;1.73;1.53;;;;;;;;;;7387234;19;20129;-65
2022/12/14 01:54:12;;;;;;;1.47;1.40;;;;;;;;;;7379719;19;20513;-65
2022/12/14 01:56:40;;;;;;;2.87;1.33;;;;;;;;;;7390191;19;20582;-62
2022/12/14 01:59:10;;;;;;;0.80;0.80;;;;;;;;;;7384794;19;20137;-62
2022/12/14 02:01:36;;;;;;;1.37;1.13;;;;;;;;;;7386273;19;20156;-62
2022/12/14 02:04:03;;;;;;;1.37;0.57;;;;;;;;;;7387977;19;20129;-62
2022/12/14 02:06:34;;;;;;;2.30;1.50;;;;;;;;;;7387210;19;20124;-62
2022/12/14 02:08:59;;;;;;;1.17;1.07;;;;;;;;;;7390616;19;20153;-62
2022/12/14 02:11:42;;;;;;;0.87;0.73;;;;;;;;;;7374343;19;20121;-62
2022/12/14 02:14:07;;;;;;;1.57;1.47;;;;;;;;;;7388910;19;20645;-62
2022/12/14 02:16:33;;;;;;;0.73;0.73;;;;;;;;;;7388744;19;20154;-63
2022/12/14 02:18:58;;;;;;;0.90;0.90;;;;;;;;;;7382434;19;20121;-62
2022/12/14 02:21:54;;;;;;;2.03;1.40;;;;;;;;;;7381686;19;20117;-62
2022/12/14 02:24:27;;;;;;;1.83;1.00;;;;;;;;;;7378860;19;22109;-61
2022/12/14 02:27:26;;;;;;;0.90;0.80;;;;;;;;;;7374571;19;20135;-62
2022/12/14 02:30:00;;;;;;;0.57;0.57;;;;;;;;;;7382831;19;20136;-62
2022/12/14 02:32:41;;;;;;;1.10;1.10;;;;;;;;;;7366203;19;20662;-62
2022/12/14 02:35:25;;;;;;;0.97;0.90;;;;;;;;;;7371742;19;20121;-62
2022/12/14 02:37:56;;;;;;;1.40;1.37;;;;;;;;;;7380353;19;20125;-62
2022/12/14 02:40:35;;;;;;;0.73;0.73;;;;;;;;;;7371696;19;20488;-62
2022/12/14 02:43:10;;;;;;;2.00;1.63;;;;;;;;;;7372405;19;20159;-62
2022/12/14 02:45:54;;;;;;;0.80;0.80;;;;;;;;;;7367529;19;20127;-62
2022/12/14 02:48:25;;;;;;;3.73;1.20;;;;;;;;;;7377943;19;20125;-62
2022/12/14 02:51:00;;;;;;;2.30;2.10;;;;;;;;;;7378826;19;20129;-62
2022/12/14 02:53:34;;;;;;;0.87;0.83;;;;;;;;;;7362361;19;20851;-62
2022/12/14 02:56:06;;;;;;;1.27;0.80;;;;;;;;;;7370173;19;20148;-62
2022/12/14 02:58:47;;;;;;;1.00;1.00;;;;;;;;;;7382803;19;20124;-62
2022/12/14 03:01:15;;;;;;;1.90;1.80;;;;;;;;;;7368387;19;20184;-63
2022/12/14 03:03:41;;;;;;;0.97;0.97;;;;;;;;;;7376228;19;20153;-62
2022/12/14 03:06:24;;;;;;;1.20;1.20;;;;;;;;;;7369195;19;20136;-62
2022/12/14 03:08:51;;;;;;;0.80;0.80;;;;;;;;;;7374689;19;20200;-62
2022/12/14 03:11:20;;;;;;;0.50;0.50;;;;;;;;;;7374320;19;20510;-63
2022/12/14 03:13:56;;;;;;;1.60;1.30;;;;;;;;;;7366105;19;20153;-63
2022/12/14 03:16:24;;;;;;;0.70;0.70;;;;;;;;;;7376128;19;20125;-63
2022/12/14 03:18:55;;;;;;;0.93;0.70;;;;;;;;;;7367165;19;20207;-63
2022/12/14 03:21:27;;;;;;;0.73;0.70;;;;;;;;;;7374959;19;20124;-63
2022/12/14 03:23:54;;;;;;;4.70;1.27;;;;;;;;;;7378305;19;20163;-63
2022/12/14 03:26:32;;;;;;;0.70;0.70;;;;;;;;;;7378996;19;20821;-62
2022/12/14 03:29:03;;;;;;;0.83;0.83;;;;;;;;;;7374785;19;20157;-63
2022/12/14 03:31:32;;;;;;;1.30;1.30;;;;;;;;;;7373623;19;20121;-63
2022/12/14 03:33:59;;;;;;;1.07;1.07;;;;;;;;;;7368022;19;20163;-63
2022/12/14 03:36:28;;;;;;;0.97;0.97;;;;;;;;;;7373423;19;20529;-63
2022/12/14 03:38:56;;;;;;;1.20;1.17;;;;;;;;;;7374876;19;20225;-63
2022/12/14 03:41:28;;;;;;;1.17;1.07;;;;;;;;;;7382675;19;20121;-63
2022/12/14 03:44:16;;;;;;;1.20;0.83;;;;;;;;;;7375979;19;20230;-63
2022/12/14 03:46:54;;;;;;;0.70;0.70;;;;;;;;;;7377935;19;20136;-63
2022/12/14 03:49:41;;;;;;;2.90;1.20;;;;;;;;;;7368983;19;20482;-63
2022/12/14 03:52:13;;;;;;;1.07;1.00;;;;;;;;;;7370207;19;20153;-63
2022/12/14 03:54:48;;;;;;;2.20;1.20;;;;;;;;;;7369969;19;20153;-63
2022/12/14 03:57:22;;;;;;;1.90;1.23;;;;;;;;;;7379673;19;20121;-63
2022/12/14 03:59:57;;;;;;;1.03;1.03;;;;;;;;;;7375132;19;20469;-63
2022/12/14 04:02:32;;;;;;;1.83;1.57;;;;;;;;;;7359123;19;20657;-63
2022/12/14 04:05:03;;;;;;;0.80;0.80;;;;;;;;;;7380698;19;20211;-63
2022/12/14 04:07:47;;;;;;;0.70;0.70;;;;;;;;;;7374282;19;20131;-63
2022/12/14 04:18:56;;;;;;;0.70;0.70;;;;;;;;;;7378437;19;20201;-63
2022/12/14 04:21:27;;;;;;;1.13;1.13;;;;;;;;;;7375887;19;20608;-63
2022/12/14 04:27:01;;;;;;;0.80;0.80;;;;;;;;;;7384264;19;20148;-63
2022/12/14 04:32:16;;;;;;;1.47;1.30;;;;;;;;;;7371977;19;20156;-63
2022/12/14 04:34:44;;;;;;;1.00;0.90;;;;;;;;;;7383132;19;20153;-63
2022/12/14 04:37:13;;;;;;;0.73;0.73;;;;;;;;;;7373482;19;20784;-63
2022/12/14 04:39:58;;;;;;;1.10;1.10;;;;;;;;;;7368168;19;20125;-63
2022/12/14 04:42:33;;;;;;;0.80;0.80;;;;;;;;;;7372589;19;20152;-63
2022/12/14 04:45:03;;;;;;;3.07;1.53;;;;;;;;;;7361560;19;20445;-63
2022/12/14 04:47:32;;;;;;;0.70;0.70;;;;;;;;;;7362883;19;20950;-63
2022/12/14 04:50:13;;;;;;;0.57;0.57;;;;;;;;;;7357784;19;20151;-63
2022/12/14 04:52:46;;;;;;;0.57;0.57;;;;;;;;;;7370231;19;20149;-63
2022/12/14 04:55:18;;;;;;;0.97;0.97;;;;;;;;;;7361681;19;20128;-63
2022/12/14 04:57:54;;;;;;;1.07;1.00;;;;;;;;;;7372143;19;20575;-63
2022/12/14 05:00:19;;;;;;;1.13;1.13;;;;;;;;;;7364705;19;20471;-63
2022/12/14 05:03:20;;;;;;;1.17;1.17;;;;;;;;;;7364946;19;20153;-63
2022/12/14 05:06:06;;;;;;;0.47;0.47;;;;;;;;;;7373730;19;20665;-63
2022/12/14 05:08:47;;;;;;;3.80;1.17;;;;;;;;;;7377099;19;20128;-63
2022/12/14 05:11:21;;;;;;;1.67;1.57;;;;;;;;;;7378859;19;20152;-63
2022/12/14 05:13:49;;;;;;;1.53;1.10;;;;;;;;;;7354647;19;20494;-63
2022/12/14 05:16:16;;;;;;;1.33;1.30;;;;;;;;;;7376033;19;20133;-64
2022/12/14 05:18:42;;;;;;;0.50;0.50;;;;;;;;;;7376526;19;20125;-63
2022/12/14 05:21:08;;;;;;;1.43;1.33;;;;;;;;;;7388841;19;20598;-63
2022/12/14 05:23:53;;;;;;;0.97;0.93;;;;;;;;;;7391341;19;20152;-63
2022/12/14 05:26:19;;;;;;;1.43;1.33;;;;;;;;;;7391434;19;20193;-63
2022/12/14 05:28:44;;;;;;;1.10;1.10;;;;;;;;;;7387233;19;20512;-63
2022/12/14 05:31:09;;;;;;;1.23;1.10;;;;;;;;;;7388373;19;20121;-63
2022/12/14 05:33:35;;;;;;;1.10;1.07;;;;;;;;;;7384434;19;20153;-63
2022/12/14 05:36:00;;;;;;;0.73;0.73;;;;;;;;;;7387621;19;20113;-63
2022/12/14 05:38:25;;;;;;;0.93;0.93;;;;;;;;;;7393133;19;20132;-63
2022/12/14 05:40:51;;;;;;;1.40;1.30;;;;;;;;;;7388611;19;20138;-63
2022/12/14 05:43:16;;;;;;;4.30;1.20;;;;;;;;;;7382594;19;20240;-63
2022/12/14 05:45:41;;;;;;;1.30;1.13;;;;;;;;;;7386921;19;20121;-63
2022/12/14 05:48:06;;;;;;;1.20;1.10;;;;;;;;;;7391305;19;20129;-63
2022/12/14 05:50:32;;;;;;;1.37;1.20;;;;;;;;;;7393695;19;20146;-63
2022/12/14 05:52:57;;;;;;;0.70;0.70;;;;;;;;;;7387891;19;20145;-63
2022/12/14 05:55:22;;;;;;;0.83;0.83;;;;;;;;;;7386960;19;20140;-63
2022/12/14 05:57:47;;;;;;;1.67;1.57;;;;;;;;;;7383905;19;20125;-63
2022/12/14 06:00:13;;;;;;;2.50;1.20;;;;;;;;;;7387677;19;20132;-63
2022/12/14 06:02:39;;;;;;;1.13;1.03;;;;;;;;;;7389980;19;20656;-63
2022/12/14 06:05:04;;;;;;;4.27;2.17;;;;;;;;;;7375383;19;20121;-63
2022/12/14 06:07:30;;;;;;;1.17;1.17;;;;;;;;;;7386031;19;20201;-63
2022/12/14 06:09:55;;;;;;;1.00;1.00;;;;;;;;;;7379588;19;20650;-63
2022/12/14 06:12:21;;;;;;;0.70;0.70;;;;;;;;;;7388519;19;20634;-63
2022/12/14 06:14:46;;;;;;;0.90;0.90;;;;;;;;;;7383430;19;20132;-63
2022/12/14 06:17:11;;;;;;;2.17;1.83;;;;;;;;;;7386975;19;20160;-63
2022/12/14 06:19:37;;;;;;;2.37;1.30;;;;;;;;;;7389026;19;20161;-63
2022/12/14 06:22:02;;;;;;;1.57;1.37;;;;;;;;;;7380743;19;20145;-63
2022/12/14 06:24:27;;;;;;;1.33;1.23;;;;;;;;;;7385597;19;20129;-63
2022/12/14 06:26:52;;;;;;;1.57;1.47;;;;;;;;;;7377948;19;20133;-63
2022/12/14 06:29:18;;;;;;;1.33;1.23;;;;;;;;;;7381330;19;20461;-63
2022/12/14 06:31:44;;;;;;;0.60;0.60;;;;;;;;;;7374946;19;20169;-63
2022/12/14 06:34:10;;;;;;;1.53;1.13;;;;;;;;;;7379490;19;20142;-63
2022/12/14 06:36:38;;;;;;;0.80;0.80;;;;;;;;;;7381858;19;20201;-63
2022/12/14 06:39:12;;;;;;;2.63;1.40;;;;;;;;;;7371688;19;20210;-63
2022/12/14 06:41:39;;;;;;;1.20;0.87;;;;;;;;;;7387284;19;20188;-63
2022/12/14 06:44:06;;;;;;;0.80;0.80;;;;;;;;;;7385448;19;20125;-63
2022/12/14 06:46:32;;;;;;;0.90;0.90;;;;;;;;;;7389004;19;20126;-63
2022/12/14 06:48:57;;;;;;;2.57;1.73;;;;;;;;;;7387613;19;20125;-62
2022/12/14 18:48:55;;;;;;;0.47;0.47;;;;;;;;;;7369365;19;20205;-62
2022/12/14 18:51:22;;;;;;;0.67;0.67;;;;;;;;;;7376297;19;20121;-62
2022/12/14 18:53:52;;;;;;;0.40;0.40;;;;;;;;;;7373585;19;20156;-62
2022/12/14 18:56:17;;;;;;;0.77;0.77;;;;;;;;;;7372892;19;20143;-62
2022/12/14 18:58:44;;;;;;;0.70;0.70;;;;;;;;;;7379485;19;20133;-62
2022/12/14 19:01:15;;;;;;;0.70;0.60;;;;;;;;;;7366409;19;20129;-62
2022/12/14 19:03:41;;;;;;;0.30;0.30;;;;;;;;;;7372801;19;20617;-62
2022/12/14 19:06:10;;;;;;;0.67;0.67;;;;;;;;;;7365307;19;20129;-62
2022/12/14 19:08:35;;;;;;;0.77;0.67;;;;;;;;;;7372503;19;20145;-62
2022/12/14 19:11:07;;;;;;;0.30;0.30;;;;;;;;;;7370827;19;20132;-62
2022/12/14 19:13:32;;;;;;;0.50;0.50;;;;;;;;;;7379472;19;20153;-62
2022/12/14 19:15:58;;;;;;;1.03;1.03;;;;;;;;;;7375026;19;20117;-62
2022/12/14 19:18:23;;;;;;;0.53;0.53;;;;;;;;;;7372440;19;20153;-62
2022/12/14 19:20:48;;;;;;;0.30;0.30;;;;;;;;;;7369591;19;20197;-62
2022/12/14 19:23:15;;;;;;;0.40;0.40;;;;;;;;;;7372773;19;20180;-62
2022/12/14 19:25:40;;;;;;;1.93;0.73;;;;;;;;;;7371883;19;20124;-62
2022/12/14 19:28:05;;;;;;;0.47;0.47;;;;;;;;;;7384411;19;20125;-62
2022/12/14 19:30:33;;;;;;;0.50;0.50;;;;;;;;;;7369091;19;20197;-62
2022/12/14 19:32:58;;;;;;;0.40;0.40;;;;;;;;;;7341978;19;20171;-62
2022/12/14 19:35:24;;;;;;;0.60;0.60;;;;;;;;;;7363981;19;20630;-62
2022/12/14 19:37:50;;;;;;;0.33;0.33;;;;;;;;;;7354238;19;20121;-62
2022/12/14 19:40:16;;;;;;;0.40;0.40;;;;;;;;;;7361422;19;20129;-62
2022/12/14 19:42:41;;;;;;;0.70;0.70;;;;;;;;;;7362981;19;20171;-62
2022/12/14 19:45:08;;;;;;;0.70;0.70;;;;;;;;;;7363067;19;20615;-62
2022/12/14 19:47:34;;;;;;;0.50;0.50;;;;;;;;;;7354843;19;20145;-62
2022/12/14 19:49:59;;;;;;;0.47;0.47;;;;;;;;;;7368878;19;20112;-62
2022/12/14 19:52:26;;;;;;;0.43;0.43;;;;;;;;;;7359087;19;20153;-62
2022/12/14 19:54:51;;;;;;;0.30;0.30;;;;;;;;;;7358346;19;20132;-62
2022/12/14 19:57:16;;;;;;;0.87;0.87;;;;;;;;;;7366037;19;20125;-62
2022/12/14 19:59:42;;;;;;;0.63;0.63;;;;;;;;;;7379222;19;20599;-62
2022/12/14 20:02:11;;;;;;;0.40;0.40;;;;;;;;;;7372602;19;20173;-62
2022/12/14 20:04:38;;;;;;;0.20;0.20;;;;;;;;;;7375688;19;20145;-62
2022/12/14 20:07:04;;;;;;;0.20;0.20;;;;;;;;;;7369557;19;20626;-62
2022/12/14 20:09:29;;;;;;;0.40;0.40;;;;;;;;;;7364630;19;20184;-62
2022/12/14 20:11:54;;;;;;;3.10;0.60;;;;;;;;;;7353336;19;20157;-62
2022/12/14 20:14:20;;;;;;;0.30;0.30;;;;;;;;;;7370861;19;20139;-62
2022/12/14 20:16:45;;;;;;;0.40;0.40;;;;;;;;;;7368184;19;20128;-62
2022/12/14 20:19:12;;;;;;;0.30;0.30;;;;;;;;;;7365647;19;20121;-63
2022/12/14 20:21:38;;;;;;;0.20;0.20;;;;;;;;;;7364135;19;20129;-62
2022/12/14 20:24:03;;;;;;;0.37;0.37;;;;;;;;;;7364505;19;20121;-62
2022/12/14 20:26:29;;;;;;;0.20;0.20;;;;;;;;;;7368831;19;20609;-62
2022/12/14 20:28:57;;;;;;;0.37;0.37;;;;;;;;;;7356491;19;20125;-62
2022/12/14 20:31:23;;;;;;;0.20;0.20;;;;;;;;;;7368314;19;20121;-62
2022/12/14 20:33:48;;;;;;;0.20;0.20;;;;;;;;;;7370724;19;20594;-62
2022/12/14 20:36:14;;;;;;;0.30;0.30;;;;;;;;;;7384190;19;20125;-62
2022/12/14 20:38:39;;;;;;;0.30;0.30;;;;;;;;;;7372215;19;20139;-62
2022/12/14 20:41:11;;;;;;;0.30;0.30;;;;;;;;;;7373930;19;20647;-62
2022/12/14 20:43:41;;;;;;;0.20;0.20;;;;;;;;;;7376268;19;20572;-62
2022/12/14 20:46:27;;;;;;;0.30;0.30;;;;;;;;;;7385663;19;20939;-61
2022/12/14 20:48:53;;;;;;;0.30;0.30;;;;;;;;;;7383165;19;20124;-61
2022/12/14 20:51:18;;;;;;;0.30;0.30;;;;;;;;;;7380565;19;20476;-61
2022/12/14 20:53:44;;;;;;;0.20;0.20;;;;;;;;;;7380473;19;20200;-62
2022/12/14 20:56:09;;;;;;;0.73;0.73;;;;;;;;;;7385802;19;20153;-61
2022/12/14 20:58:34;;;;;;;0.30;0.30;;;;;;;;;;7380753;19;20113;-62
2022/12/14 21:01:07;;;;;;;0.30;0.30;;;;;;;;;;7381729;19;20490;-62
2022/12/14 21:03:32;;;;;;;0.20;0.20;;;;;;;;;;7378543;19;20149;-61
2022/12/14 21:06:00;;;;;;;0.20;0.20;;;;;;;;;;7376783;19;20475;-62
2022/12/14 21:08:26;;;;;;;0.37;0.37;;;;;;;;;;7365803;19;20605;-62
2022/12/14 21:13:45;;;;;;;0.30;0.30;;;;;;;;;;7379018;19;20240;-62
2022/12/14 21:16:11;;;;;;;0.20;0.20;;;;;;;;;;7372524;19;20117;-62
2022/12/14 21:18:36;;;;;;;0.30;0.30;;;;;;;;;;7372469;19;20134;-62
2022/12/14 21:21:05;;;;;;;0.20;0.20;;;;;;;;;;7374361;19;20128;-62
2022/12/14 21:23:31;;;;;;;0.20;0.20;;;;;;;;;;7372961;19;20152;-62
2022/12/14 21:26:01;;;;;;;0.50;0.50;;;;;;;;;;7371390;19;20125;-62
2022/12/14 21:28:26;;;;;;;0.23;0.23;;;;;;;;;;7379554;19;20144;-61
2022/12/14 21:30:51;;;;;;;0.20;0.20;;;;;;;;;;7384555;19;20181;-62
2022/12/14 21:33:17;;;;;;;0.27;0.27;;;;;;;;;;7383866;19;20900;-61
2022/12/14 21:35:42;;;;;;;0.30;0.30;;;;;;;;;;7382559;19;20121;-62
2022/12/14 21:38:07;;;;;;;0.40;0.40;;;;;;;;;;7383261;19;20141;-61
2022/12/14 21:43:16;;;;;;;0.30;0.30;;;;;;;;;;7352270;19;20679;-62
2022/12/14 21:45:42;;;;;;;0.23;0.23;;;;;;;;;;7366225;19;20507;-62
2022/12/14 21:48:07;;;;;;;0.30;0.30;;;;;;;;;;7362560;19;20149;-62
2022/12/14 21:50:32;;;;;;;0.30;0.30;;;;;;;;;;7363999;19;20121;-62
2022/12/14 21:52:57;;;;;;;0.40;0.40;;;;;;;;;;7368611;19;20144;-62
2022/12/14 21:55:23;;;;;;;0.30;0.30;;;;;;;;;;7373646;19;20121;-62
2022/12/14 22:00:32;;;;;;;0.30;0.30;;;;;;;;;;7365187;19;20151;-62
2022/12/14 22:02:57;;;;;;;0.20;0.20;;;;;;;;;;7374131;19;20630;-62
2022/12/14 22:05:23;;;;;;;0.30;0.30;;;;;;;;;;7375602;19;20137;-62
2022/12/14 22:07:48;;;;;;;0.20;0.20;;;;;;;;;;7376003;19;20157;-62
2022/12/14 22:10:13;;;;;;;0.60;0.60;;;;;;;;;;7364348;19;20127;-61
2022/12/14 22:12:38;;;;;;;0.30;0.30;;;;;;;;;;7367343;19;20152;-62
2022/12/14 22:15:04;;;;;;;0.30;0.30;;;;;;;;;;7378278;19;20630;-62
2022/12/14 22:17:29;;;;;;;0.57;0.50;;;;;;;;;;7371155;19;20132;-62
2022/12/14 22:19:55;;;;;;;0.50;0.50;;;;;;;;;;7377050;19;20154;-62
2022/12/14 22:22:20;;;;;;;0.20;0.20;;;;;;;;;;7365301;19;20168;-62
2022/12/14 22:24:49;;;;;;;0.30;0.30;;;;;;;;;;7376822;19;20143;-62
2022/12/14 22:27:15;;;;;;;0.30;0.30;;;;;;;;;;7379122;19;20657;-61
2022/12/14 22:29:40;;;;;;;0.20;0.20;;;;;;;;;;7384448;19;20149;-62
2022/12/14 22:32:06;;;;;;;0.30;0.30;;;;;;;;;;7367228;19;20145;-62
2022/12/14 22:34:31;;;;;;;0.30;0.30;;;;;;;;;;7370630;19;20149;-62
2022/12/14 22:36:56;;;;;;;0.20;0.20;;;;;;;;;;7377425;19;20121;-62
2022/12/14 22:39:22;;;;;;;0.40;0.40;;;;;;;;;;7373285;19;20143;-62
2022/12/14 22:41:47;;;;;;;0.30;0.30;;;;;;;;;;7382927;19;20129;-62
2022/12/14 22:44:13;;;;;;;0.67;0.67;;;;;;;;;;7373816;19;20196;-62
2022/12/14 22:46:38;;;;;;;0.30;0.30;;;;;;;;;;7375588;19;20731;-62
2022/12/14 22:49:04;;;;;;;0.27;0.27;;;;;;;;;;7362704;19;20132;-61
2022/12/14 22:51:29;;;;;;;0.43;0.43;;;;;;;;;;7378302;19;20105;-62
2022/12/14 22:53:55;;;;;;;0.20;0.20;;;;;;;;;;7375685;19;20170;-61
2022/12/14 22:56:25;;;;;;;0.20;0.20;;;;;;;;;;7381394;19;20117;-62
2022/12/14 22:58:56;;;;;;;0.30;0.30;;;;;;;;;;7371037;19;20870;-62
2022/12/14 23:01:21;;;;;;;0.20;0.20;;;;;;;;;;7369653;19;20121;-62
2022/12/14 23:03:47;;;;;;;0.23;0.23;;;;;;;;;;7373719;19;20505;-62
2022/12/14 23:06:15;;;;;;;0.30;0.30;;;;;;;;;;7374203;19;20117;-63
